KEWN/EWN METAR and TAF weather

Enter ICAO airport designator
Station Type Date Time Source
KEWN METAR 2021/03/05 13:54 UTC NOAA

KEWN 051354Z 36013KT 10SM CLR 05/M04 A3013 RMK AO2 SLP202 T00501044


Station Type Date Time Source
KEWN Decoded METAR 2021/03/05 13:54 UTC NOAA

New Bern, Craven County Regional Airport, NC, United States (KEWN) 35-04-03N 077-02-50W 3M
Mar 05, 2021 - 08:54 AM EST / 2021.03.05 1354 UTC
Wind: from the N (360 degrees) at 15 MPH (13 KT):0
Visibility: 10 mile(s):0
Sky conditions: clear
Temperature: 41.0 F (5.0 C)
Dew Point: 24.1 F (-4.4 C)
Relative Humidity: 50%
Pressure (altimeter): 30.13 in. Hg (1020 hPa)
ob: KEWN 051354Z 36013KT 10SM CLR 05/M04 A3013 RMK AO2 SLP202 T00501044
cycle: 14

Station Type Date Time Source
KEWN TAF 2021/03/05 12:24 UTC NOAA

TAF KEWN 051122Z 0512/0612 01007KT P6SM SKC
FM051300 35010G19KT P6SM SKC
FM052200 33003KT P6SM SKC
FM060700 34005KT P6SM BKN150

Example: see airport list